Time;durP1;ratioP1;P1;durP2;ratioP2;P2;SDS_P1;SDS_P2;PMS_P1;PMS_P2;Temp;Humidity;BMP_temperature;BMP_pressure;BME280_temperature;BME280_humidity;BME280_pressure;Samples;Min_cycle;Max_cycle;Signal;HPM_P1;HPM_P2
2023/12/04 00:00:53;;;;;;;1999.90;999.90;;;;;;;;;;5054670;28;20052;-84
2023/12/04 00:03:20;;;;;;;1999.90;999.90;;;;;;;;;;5060456;28;20052;-84
2023/12/04 00:05:47;;;;;;;1999.90;999.90;;;;;;;;;;5062264;28;20219;-85
2023/12/04 00:08:13;;;;;;;1999.90;999.90;;;;;;;;;;5053733;28;20053;-84
2023/12/04 00:10:40;;;;;;;1999.90;999.90;;;;;;;;;;5052464;28;20466;-84
2023/12/04 00:13:06;;;;;;;1999.90;999.90;;;;;;;;;;5058440;28;20057;-84
2023/12/04 00:15:33;;;;;;;1999.90;999.90;;;;;;;;;;5058350;28;20409;-84
2023/12/04 00:18:01;;;;;;;1999.90;999.90;;;;;;;;;;5062180;28;20048;-84
2023/12/04 00:20:27;;;;;;;1999.90;999.90;;;;;;;;;;5057565;28;20049;-84
2023/12/04 00:22:54;;;;;;;1999.90;999.90;;;;;;;;;;5056163;28;20053;-84
2023/12/04 00:25:21;;;;;;;1999.90;999.90;;;;;;;;;;5058307;28;20056;-84
2023/12/04 00:27:47;;;;;;;1999.90;999.90;;;;;;;;;;5055607;28;20047;-84
2023/12/04 00:30:14;;;;;;;1999.90;999.90;;;;;;;;;;5057098;28;20071;-84
2023/12/04 00:32:40;;;;;;;1999.90;999.90;;;;;;;;;;5054133;28;20049;-83
2023/12/04 00:35:09;;;;;;;1999.90;999.90;;;;;;;;;;5055761;28;20055;-83
2023/12/04 00:37:38;;;;;;;1999.90;999.90;;;;;;;;;;5056497;28;20409;-85
2023/12/04 00:40:06;;;;;;;1999.90;999.90;;;;;;;;;;5057654;28;20048;-86
2023/12/04 00:42:32;;;;;;;1999.90;999.90;;;;;;;;;;5048747;28;20056;-84
2023/12/04 00:44:59;;;;;;;1999.90;999.90;;;;;;;;;;5054311;28;20046;-83
2023/12/04 00:47:25;;;;;;;1999.90;999.90;;;;;;;;;;5046544;28;20375;-83
2023/12/04 00:49:52;;;;;;;1999.90;999.90;;;;;;;;;;5062596;28;20056;-84
2023/12/04 00:52:20;;;;;;;1999.90;999.90;;;;;;;;;;5054841;28;20176;-84
2023/12/04 00:54:46;;;;;;;1999.90;999.90;;;;;;;;;;5050184;28;20044;-83
2023/12/04 00:57:13;;;;;;;1999.90;999.90;;;;;;;;;;5055928;28;20055;-83
2023/12/04 00:59:39;;;;;;;1999.90;999.90;;;;;;;;;;5054634;28;20049;-86
2023/12/04 01:02:07;;;;;;;1999.90;999.90;;;;;;;;;;5064707;28;20404;-86
2023/12/04 01:04:34;;;;;;;1999.90;999.90;;;;;;;;;;5058650;28;20057;-84
2023/12/04 01:07:01;;;;;;;1999.90;999.90;;;;;;;;;;5052034;28;20454;-84
2023/12/04 01:09:28;;;;;;;1999.90;999.90;;;;;;;;;;5056063;28;20048;-84
2023/12/04 01:11:55;;;;;;;1999.90;999.90;;;;;;;;;;5051585;28;20379;-84
2023/12/04 01:14:22;;;;;;;1999.90;999.90;;;;;;;;;;5057586;28;20166;-85
2023/12/04 01:16:48;;;;;;;1999.90;999.90;;;;;;;;;;5060677;28;20049;-84
2023/12/04 01:19:15;;;;;;;1999.90;999.90;;;;;;;;;;5056701;28;20045;-84
2023/12/04 01:21:41;;;;;;;1999.90;999.90;;;;;;;;;;5053152;28;20052;-84
2023/12/04 01:24:08;;;;;;;1999.90;999.90;;;;;;;;;;5056381;28;20424;-83
2023/12/04 01:26:36;;;;;;;1999.90;999.90;;;;;;;;;;5057192;28;20045;-83
2023/12/04 01:29:02;;;;;;;1999.90;999.90;;;;;;;;;;5058160;28;20052;-83
2023/12/04 01:31:29;;;;;;;1999.90;999.90;;;;;;;;;;5057611;28;20045;-84
2023/12/04 01:33:55;;;;;;;1999.90;999.90;;;;;;;;;;5055585;28;20052;-84
2023/12/04 01:36:22;;;;;;;1999.90;999.90;;;;;;;;;;5057679;28;20053;-84
2023/12/04 01:38:48;;;;;;;1999.90;999.90;;;;;;;;;;5057640;28;20051;-84
2023/12/04 01:41:15;;;;;;;1999.90;999.90;;;;;;;;;;5050827;28;20049;-85
2023/12/04 01:43:43;;;;;;;1999.90;999.90;;;;;;;;;;5053218;28;20500;-84
2023/12/04 01:46:10;;;;;;;1999.90;999.90;;;;;;;;;;5055121;28;20057;-83
2023/12/04 01:48:37;;;;;;;1999.90;999.90;;;;;;;;;;5057050;28;20052;-85
2023/12/04 01:51:07;;;;;;;1999.90;999.90;;;;;;;;;;5056597;28;20052;-84
2023/12/04 01:53:35;;;;;;;1999.90;999.90;;;;;;;;;;5050511;28;20076;-84
2023/12/04 01:56:01;;;;;;;1999.90;999.90;;;;;;;;;;5047368;28;20049;-84
2023/12/04 01:58:28;;;;;;;1999.90;999.90;;;;;;;;;;5052891;28;20382;-83
2023/12/04 02:00:56;;;;;;;1999.90;999.90;;;;;;;;;;5060572;28;20049;-84
2023/12/04 02:03:23;;;;;;;1999.90;999.90;;;;;;;;;;5051883;28;20045;-84
2023/12/04 02:05:50;;;;;;;1999.90;999.90;;;;;;;;;;5053579;28;20047;-84
2023/12/04 02:08:17;;;;;;;1999.90;999.90;;;;;;;;;;5056122;28;20511;-85
2023/12/04 02:10:44;;;;;;;1999.90;999.90;;;;;;;;;;5050356;28;20401;-85
2023/12/04 02:13:10;;;;;;;1999.90;999.90;;;;;;;;;;5056884;28;20140;-84
2023/12/04 02:15:37;;;;;;;1999.90;999.90;;;;;;;;;;5051093;28;20055;-85
2023/12/04 02:18:05;;;;;;;1999.90;999.90;;;;;;;;;;5050689;28;20482;-86
2023/12/04 02:20:33;;;;;;;1999.90;999.90;;;;;;;;;;5057053;28;20531;-84
2023/12/04 02:22:59;;;;;;;1999.90;999.90;;;;;;;;;;5053652;28;20052;-85
2023/12/04 02:25:28;;;;;;;1999.90;999.90;;;;;;;;;;5052789;28;20045;-85
2023/12/04 02:27:55;;;;;;;1999.90;999.90;;;;;;;;;;5050222;28;20047;-83
2023/12/04 02:30:23;;;;;;;1999.90;999.90;;;;;;;;;;5059651;28;20064;-84
2023/12/04 02:32:51;;;;;;;1999.90;999.90;;;;;;;;;;5053935;28;20053;-84
2023/12/04 02:35:20;;;;;;;1999.90;999.90;;;;;;;;;;5052032;28;20065;-85
2023/12/04 02:37:47;;;;;;;1999.90;999.90;;;;;;;;;;5052289;28;20067;-85
2023/12/04 02:40:14;;;;;;;1999.90;999.90;;;;;;;;;;5051337;28;20049;-85
2023/12/04 02:42:42;;;;;;;1999.90;999.90;;;;;;;;;;5051998;28;20053;-85
2023/12/04 02:45:09;;;;;;;1999.90;999.90;;;;;;;;;;5051600;28;20047;-84
2023/12/04 02:47:36;;;;;;;1999.90;999.90;;;;;;;;;;5058629;28;20060;-84
2023/12/04 02:50:02;;;;;;;1999.90;999.90;;;;;;;;;;5054333;28;20055;-84
2023/12/04 02:52:29;;;;;;;1999.90;999.90;;;;;;;;;;5054686;28;20451;-84
2023/12/04 02:54:55;;;;;;;1999.90;999.90;;;;;;;;;;5053107;28;20044;-84
2023/12/04 02:57:22;;;;;;;1999.90;999.90;;;;;;;;;;5053859;28;20512;-84
2023/12/04 02:59:50;;;;;;;1999.90;999.90;;;;;;;;;;5051911;28;20045;-84
2023/12/04 03:02:17;;;;;;;1999.90;999.90;;;;;;;;;;5060931;28;20048;-85
2023/12/04 03:04:43;;;;;;;1999.90;999.90;;;;;;;;;;5052235;28;20129;-84
2023/12/04 03:07:10;;;;;;;1999.90;999.90;;;;;;;;;;5054617;28;20501;-85
2023/12/04 03:09:36;;;;;;;1999.90;999.90;;;;;;;;;;5049544;28;20048;-85
2023/12/04 03:12:03;;;;;;;1999.90;999.90;;;;;;;;;;5051362;28;20050;-84
2023/12/04 03:14:29;;;;;;;1999.90;999.90;;;;;;;;;;5055446;28;20063;-83
2023/12/04 03:16:57;;;;;;;1999.90;999.90;;;;;;;;;;5056923;28;20417;-85
2023/12/04 03:19:23;;;;;;;1999.90;999.90;;;;;;;;;;5053952;28;20049;-84
2023/12/04 03:21:50;;;;;;;1999.90;999.90;;;;;;;;;;5056749;28;20045;-84
2023/12/04 03:24:16;;;;;;;1999.90;999.90;;;;;;;;;;5054489;28;20053;-85
2023/12/04 03:26:43;;;;;;;1999.90;999.90;;;;;;;;;;5054165;28;20446;-85
2023/12/04 03:29:09;;;;;;;1999.90;999.90;;;;;;;;;;5055060;28;20062;-85
2023/12/04 03:31:36;;;;;;;1999.90;999.90;;;;;;;;;;5057920;28;20056;-84
2023/12/04 03:34:04;;;;;;;1999.90;999.90;;;;;;;;;;5053969;28;20045;-84
2023/12/04 03:36:30;;;;;;;1999.90;999.90;;;;;;;;;;5053823;28;20052;-85
2023/12/04 03:38:57;;;;;;;1999.90;999.90;;;;;;;;;;5056091;28;20048;-84
2023/12/04 03:41:23;;;;;;;1999.90;999.90;;;;;;;;;;5047373;28;20059;-85
2023/12/04 03:43:50;;;;;;;1999.90;999.90;;;;;;;;;;5051246;28;20106;-84
2023/12/04 03:46:17;;;;;;;1999.90;999.90;;;;;;;;;;5056928;28;20131;-85
2023/12/04 03:48:43;;;;;;;1999.90;999.90;;;;;;;;;;5057891;28;20052;-84
2023/12/04 03:51:11;;;;;;;1999.90;999.90;;;;;;;;;;5049282;28;20481;-84
2023/12/04 03:53:38;;;;;;;1999.90;999.90;;;;;;;;;;5048399;28;20061;-84
2023/12/04 03:56:05;;;;;;;1999.90;999.90;;;;;;;;;;5050546;28;20048;-83
2023/12/04 03:58:33;;;;;;;1999.90;999.90;;;;;;;;;;5052895;28;20048;-84
2023/12/04 04:00:59;;;;;;;1999.90;999.90;;;;;;;;;;5054887;28;20041;-84
2023/12/04 04:03:26;;;;;;;1999.90;999.90;;;;;;;;;;5057257;28;20041;-85
2023/12/04 04:05:52;;;;;;;1999.90;999.90;;;;;;;;;;5054751;28;20059;-84
2023/12/04 04:08:20;;;;;;;1999.90;999.90;;;;;;;;;;5052160;28;20512;-84
2023/12/04 04:10:47;;;;;;;1999.90;999.90;;;;;;;;;;5054661;28;20047;-85
2023/12/04 04:13:13;;;;;;;1999.90;999.90;;;;;;;;;;5056337;28;20052;-84
2023/12/04 04:15:40;;;;;;;1999.90;999.90;;;;;;;;;;5055423;28;20137;-85
2023/12/04 04:18:07;;;;;;;1999.90;999.90;;;;;;;;;;5054978;28;20380;-85
2023/12/04 04:20:33;;;;;;;1999.90;999.90;;;;;;;;;;5059295;28;20475;-85
2023/12/04 04:23:00;;;;;;;1999.90;999.90;;;;;;;;;;5059100;28;20059;-85
2023/12/04 04:25:27;;;;;;;1999.90;999.90;;;;;;;;;;5061490;28;20052;-84
2023/12/04 04:27:54;;;;;;;1999.90;999.90;;;;;;;;;;5052288;28;20064;-85
2023/12/04 04:30:21;;;;;;;1999.90;999.90;;;;;;;;;;5051930;28;20057;-85
2023/12/04 04:32:47;;;;;;;1999.90;999.90;;;;;;;;;;5058638;28;20047;-85
2023/12/04 04:35:14;;;;;;;1999.90;999.90;;;;;;;;;;5056867;28;20057;-85
2023/12/04 04:37:40;;;;;;;1999.90;999.90;;;;;;;;;;5059565;28;20421;-85
2023/12/04 04:40:08;;;;;;;1999.90;999.90;;;;;;;;;;5052430;28;20059;-85
2023/12/04 04:42:36;;;;;;;1999.90;999.90;;;;;;;;;;5062557;28;20047;-85
2023/12/04 04:45:03;;;;;;;1999.90;999.90;;;;;;;;;;5058015;28;20080;-85
2023/12/04 04:47:30;;;;;;;1999.90;999.90;;;;;;;;;;5054093;28;20048;-86
2023/12/04 04:49:56;;;;;;;1999.90;999.90;;;;;;;;;;5057253;28;20056;-84
2023/12/04 04:52:23;;;;;;;1999.90;999.90;;;;;;;;;;5061965;28;20041;-85
2023/12/04 04:54:49;;;;;;;1999.90;999.90;;;;;;;;;;5051924;28;20044;-85
2023/12/04 04:57:16;;;;;;;1999.90;999.90;;;;;;;;;;5054254;28;20075;-85
2023/12/04 04:59:43;;;;;;;1999.90;999.90;;;;;;;;;;5058837;28;20053;-84
2023/12/04 05:02:10;;;;;;;1999.90;999.90;;;;;;;;;;5059296;28;20081;-85
2023/12/04 05:04:36;;;;;;;1999.90;999.90;;;;;;;;;;5053937;28;20478;-85
2023/12/04 05:07:03;;;;;;;1999.90;999.90;;;;;;;;;;5056813;28;20059;-86
2023/12/04 05:09:29;;;;;;;1999.90;999.90;;;;;;;;;;5058953;28;20135;-87
2023/12/04 05:11:56;;;;;;;1999.90;999.90;;;;;;;;;;5055917;28;20049;-85
2023/12/04 05:14:22;;;;;;;1999.90;999.90;;;;;;;;;;5057462;28;20056;-85
2023/12/04 05:16:50;;;;;;;1999.90;999.90;;;;;;;;;;5062877;28;20049;-87
2023/12/04 05:19:17;;;;;;;1999.90;999.90;;;;;;;;;;5051287;28;20052;-86
2023/12/04 05:21:44;;;;;;;1999.90;999.90;;;;;;;;;;5055062;28;20045;-85
2023/12/04 05:24:10;;;;;;;1999.90;999.90;;;;;;;;;;5052936;28;20067;-85
2023/12/04 05:26:37;;;;;;;1999.90;999.90;;;;;;;;;;5057488;28;20040;-85
2023/12/04 05:29:03;;;;;;;1999.90;999.90;;;;;;;;;;5058170;28;20063;-84
2023/12/04 05:31:30;;;;;;;1999.90;999.90;;;;;;;;;;5058780;28;20053;-86
2023/12/04 05:33:58;;;;;;;1999.90;999.90;;;;;;;;;;5057065;28;20041;-84
2023/12/04 05:36:24;;;;;;;1999.90;999.90;;;;;;;;;;5055295;28;20068;-84
2023/12/04 05:38:53;;;;;;;1999.90;999.90;;;;;;;;;;5054428;28;20056;-85
2023/12/04 05:41:20;;;;;;;1999.90;999.90;;;;;;;;;;5052862;28;20534;-84
2023/12/04 05:43:45;;;;;;;1999.90;999.90;;;;;;;;;;5059357;28;20053;-84
2023/12/04 05:46:13;;;;;;;1999.90;999.90;;;;;;;;;;5059173;28;20421;-84
2023/12/04 05:48:39;;;;;;;1999.90;999.90;;;;;;;;;;5051208;28;20380;-83
2023/12/04 05:51:08;;;;;;;1999.90;999.90;;;;;;;;;;5055613;28;20045;-86
2023/12/04 05:53:34;;;;;;;1999.90;999.90;;;;;;;;;;5051337;28;20060;-85
2023/12/04 05:56:01;;;;;;;1999.90;999.90;;;;;;;;;;5050718;28;20037;-85
2023/12/04 05:58:27;;;;;;;1999.90;999.90;;;;;;;;;;5058607;28;20061;-85
2023/12/04 06:00:54;;;;;;;1999.90;999.90;;;;;;;;;;5058693;28;20482;-85
2023/12/04 06:03:20;;;;;;;1999.90;999.90;;;;;;;;;;5055186;28;20041;-86
2023/12/04 06:05:47;;;;;;;1999.90;999.90;;;;;;;;;;5048800;28;20053;-86
2023/12/04 06:08:15;;;;;;;1999.90;999.90;;;;;;;;;;5051012;28;20055;-84
2023/12/04 06:10:42;;;;;;;1999.90;999.90;;;;;;;;;;5057208;28;20496;-84
2023/12/04 06:13:07;;;;;;;1999.90;999.90;;;;;;;;;;5055579;28;20048;-85
2023/12/04 06:15:34;;;;;;;1999.90;999.90;;;;;;;;;;5055574;28;20045;-86
2023/12/04 06:18:00;;;;;;;1999.90;999.90;;;;;;;;;;5050286;28;20045;-86
2023/12/04 06:20:27;;;;;;;1999.90;999.90;;;;;;;;;;5054341;28;20041;-86
2023/12/04 06:22:54;;;;;;;1999.90;999.90;;;;;;;;;;5054654;28;20053;-84
2023/12/04 06:25:23;;;;;;;1999.90;999.90;;;;;;;;;;5050309;28;20506;-84
2023/12/04 06:27:51;;;;;;;1999.90;999.90;;;;;;;;;;5052515;28;20049;-84
2023/12/04 06:30:19;;;;;;;1999.90;999.90;;;;;;;;;;5056909;28;20531;-85
2023/12/04 06:32:49;;;;;;;1999.90;999.90;;;;;;;;;;5056130;28;20049;-84
2023/12/04 06:35:17;;;;;;;1999.90;999.90;;;;;;;;;;5055720;28;20055;-85
2023/12/04 06:37:44;;;;;;;1999.90;999.90;;;;;;;;;;5048664;28;20481;-84
2023/12/04 06:40:12;;;;;;;1999.90;999.90;;;;;;;;;;5050833;28;20056;-84
2023/12/04 06:42:41;;;;;;;1999.90;999.90;;;;;;;;;;5052797;28;20481;-84
2023/12/04 06:45:09;;;;;;;1999.90;999.90;;;;;;;;;;5056017;28;20122;-85
2023/12/04 06:47:36;;;;;;;1999.90;999.90;;;;;;;;;;5055766;28;20060;-84
2023/12/04 06:50:02;;;;;;;1999.90;999.90;;;;;;;;;;5055806;28;20486;-84
2023/12/04 06:52:29;;;;;;;1999.90;999.90;;;;;;;;;;5052868;28;20147;-86
2023/12/04 06:54:55;;;;;;;1999.90;999.90;;;;;;;;;;5055241;28;20468;-84
2023/12/04 06:57:22;;;;;;;1999.90;999.90;;;;;;;;;;5058619;28;20061;-84
2023/12/04 06:59:50;;;;;;;1999.90;999.90;;;;;;;;;;5054377;28;20047;-84
2023/12/04 07:02:16;;;;;;;1999.90;999.90;;;;;;;;;;5053983;28;20293;-84
2023/12/04 07:04:43;;;;;;;1999.90;999.90;;;;;;;;;;5057008;28;20362;-84
2023/12/04 07:07:12;;;;;;;1999.90;999.90;;;;;;;;;;5053794;28;20049;-84
2023/12/04 07:09:38;;;;;;;1999.90;999.90;;;;;;;;;;5053498;28;20060;-84
2023/12/04 07:12:06;;;;;;;1999.90;999.90;;;;;;;;;;5050452;28;20048;-84
2023/12/04 07:14:33;;;;;;;1999.90;999.90;;;;;;;;;;5053787;28;20056;-84
2023/12/04 07:17:01;;;;;;;1999.90;999.90;;;;;;;;;;5056278;28;20554;-87
2023/12/04 07:19:28;;;;;;;1999.90;999.90;;;;;;;;;;5055738;28;20049;-84
2023/12/04 07:21:55;;;;;;;1999.90;999.90;;;;;;;;;;5054345;28;20122;-83
2023/12/04 07:24:22;;;;;;;1999.90;999.90;;;;;;;;;;5057124;28;20049;-83
2023/12/04 07:26:49;;;;;;;1999.90;999.90;;;;;;;;;;5054711;28;20053;-82
2023/12/04 07:29:16;;;;;;;1999.90;999.90;;;;;;;;;;5054314;28;20045;-83
2023/12/04 07:31:43;;;;;;;1999.90;999.90;;;;;;;;;;5055392;28;20052;-83
2023/12/04 07:34:11;;;;;;;1999.90;999.90;;;;;;;;;;5055359;28;20521;-82
2023/12/04 07:36:37;;;;;;;1999.90;999.90;;;;;;;;;;5055719;28;20045;-82
2023/12/04 07:39:06;;;;;;;1999.90;999.90;;;;;;;;;;5057047;28;20110;-83
2023/12/04 07:41:32;;;;;;;1999.90;999.90;;;;;;;;;;5057533;28;20049;-83
2023/12/04 07:43:59;;;;;;;1999.90;999.90;;;;;;;;;;5058577;28;20066;-84
2023/12/04 07:46:26;;;;;;;1999.90;999.90;;;;;;;;;;5058456;28;20064;-83
2023/12/04 07:48:52;;;;;;;1999.90;999.90;;;;;;;;;;5053477;28;20409;-83
2023/12/04 07:51:20;;;;;;;1999.90;999.90;;;;;;;;;;5061401;28;20037;-84
2023/12/04 07:53:47;;;;;;;1999.90;999.90;;;;;;;;;;5063187;28;20053;-84
2023/12/04 07:56:14;;;;;;;1999.90;999.90;;;;;;;;;;5060082;28;20045;-83
2023/12/04 07:58:41;;;;;;;1999.90;999.90;;;;;;;;;;5054399;28;20049;-84
2023/12/04 08:01:08;;;;;;;1999.90;999.90;;;;;;;;;;5064737;28;20147;-84
2023/12/04 08:03:35;;;;;;;1999.90;999.90;;;;;;;;;;5059504;28;20049;-84
2023/12/04 08:06:01;;;;;;;1999.90;999.90;;;;;;;;;;5059871;28;20041;-84
2023/12/04 08:08:29;;;;;;;1999.90;999.90;;;;;;;;;;5063764;28;20057;-84
2023/12/04 08:10:59;;;;;;;1999.90;999.90;;;;;;;;;;5054707;28;20051;-84
2023/12/04 08:13:25;;;;;;;1999.90;999.90;;;;;;;;;;5057107;28;20045;-84
2023/12/04 08:15:52;;;;;;;1999.90;999.90;;;;;;;;;;5057078;28;20056;-84
2023/12/04 08:18:18;;;;;;;1999.90;999.90;;;;;;;;;;5052398;28;20049;-84
2023/12/04 08:20:45;;;;;;;1999.90;999.90;;;;;;;;;;5055531;28;20051;-84
2023/12/04 08:23:11;;;;;;;1999.90;999.90;;;;;;;;;;5050347;28;20053;-84
2023/12/04 08:25:39;;;;;;;1999.90;999.90;;;;;;;;;;5052569;28;20045;-84
2023/12/04 08:28:08;;;;;;;1999.90;999.90;;;;;;;;;;5048630;28;20060;-84
2023/12/04 08:30:35;;;;;;;1999.90;999.90;;;;;;;;;;5054764;28;20040;-85
2023/12/04 08:33:01;;;;;;;1999.90;999.90;;;;;;;;;;5056561;28;20041;-84
2023/12/04 08:35:28;;;;;;;1999.90;999.90;;;;;;;;;;5055019;28;20053;-84
2023/12/04 08:37:54;;;;;;;1999.90;999.90;;;;;;;;;;5051402;28;20061;-84
2023/12/04 08:40:22;;;;;;;1999.90;999.90;;;;;;;;;;5053372;28;20048;-85
2023/12/04 08:42:49;;;;;;;1999.90;999.90;;;;;;;;;;5053909;28;20041;-84
2023/12/04 08:45:16;;;;;;;1999.90;999.90;;;;;;;;;;5057794;28;20410;-82
2023/12/04 08:47:42;;;;;;;1999.90;999.90;;;;;;;;;;5054236;28;20057;-82
2023/12/04 08:50:09;;;;;;;1999.90;999.90;;;;;;;;;;5050649;28;20045;-82
2023/12/04 08:52:36;;;;;;;1999.90;999.90;;;;;;;;;;5049143;28;20110;-82
2023/12/04 08:55:02;;;;;;;1999.90;999.90;;;;;;;;;;5059512;28;20044;-82
2023/12/04 08:57:29;;;;;;;1999.90;999.90;;;;;;;;;;5057107;28;20561;-81
2023/12/04 08:59:57;;;;;;;1999.90;999.90;;;;;;;;;;5055798;28;20057;-82
2023/12/04 09:02:23;;;;;;;1999.90;999.90;;;;;;;;;;5052155;28;20059;-82
2023/12/04 09:04:50;;;;;;;1999.90;999.90;;;;;;;;;;5061065;28;20044;-82
2023/12/04 09:07:17;;;;;;;1999.90;999.90;;;;;;;;;;5053267;28;20505;-82
2023/12/04 09:09:43;;;;;;;1999.90;999.90;;;;;;;;;;5055731;28;20421;-83
2023/12/04 09:12:10;;;;;;;1999.90;999.90;;;;;;;;;;5048647;28;20045;-82
2023/12/04 09:14:37;;;;;;;1999.90;999.90;;;;;;;;;;5057087;28;20045;-82
2023/12/04 09:17:05;;;;;;;1999.90;999.90;;;;;;;;;;5054858;28;20045;-83
2023/12/04 09:19:32;;;;;;;1999.90;999.90;;;;;;;;;;5051116;28;20142;-82
2023/12/04 09:21:58;;;;;;;1999.90;999.90;;;;;;;;;;5052196;28;20052;-82
2023/12/04 09:24:25;;;;;;;1999.90;999.90;;;;;;;;;;5053378;28;20493;-82
2023/12/04 09:26:51;;;;;;;1999.90;999.90;;;;;;;;;;5055946;28;20044;-82
2023/12/04 09:29:18;;;;;;;1999.90;999.90;;;;;;;;;;5055342;28;20045;-81
2023/12/04 09:31:45;;;;;;;1999.90;999.90;;;;;;;;;;5054702;28;20489;-83
2023/12/04 09:34:13;;;;;;;1999.90;999.90;;;;;;;;;;5053997;28;20142;-82
2023/12/04 09:36:39;;;;;;;1999.90;999.90;;;;;;;;;;5055738;28;20071;-83
2023/12/04 09:39:06;;;;;;;1999.90;999.90;;;;;;;;;;5053252;28;20049;-82
2023/12/04 09:41:33;;;;;;;1999.90;999.90;;;;;;;;;;5057242;28;20514;-82
2023/12/04 09:43:59;;;;;;;1999.90;999.90;;;;;;;;;;5058143;28;20446;-82
2023/12/04 09:46:26;;;;;;;1999.90;999.90;;;;;;;;;;5055986;28;20060;-83
2023/12/04 09:48:54;;;;;;;1999.90;999.90;;;;;;;;;;5056812;28;20051;-83
2023/12/04 09:51:23;;;;;;;1999.90;999.90;;;;;;;;;;5054825;28;20084;-82
2023/12/04 09:53:50;;;;;;;1999.90;999.90;;;;;;;;;;5056890;28;20402;-82
2023/12/04 09:56:17;;;;;;;1999.90;999.90;;;;;;;;;;5056524;28;20060;-83
2023/12/04 09:58:45;;;;;;;1999.90;999.90;;;;;;;;;;5060953;28;20443;-85
2023/12/04 10:01:12;;;;;;;1999.90;999.90;;;;;;;;;;5056039;28;20056;-84
2023/12/04 10:03:39;;;;;;;1999.90;999.90;;;;;;;;;;5051965;28;20060;-84
2023/12/04 10:06:07;;;;;;;1999.90;999.90;;;;;;;;;;5047005;28;20486;-84
2023/12/04 10:08:35;;;;;;;1999.90;999.90;;;;;;;;;;5054769;28;20048;-84
2023/12/04 10:11:02;;;;;;;1999.90;999.90;;;;;;;;;;5055347;28;20061;-84
2023/12/04 10:13:28;;;;;;;1999.90;999.90;;;;;;;;;;5055786;28;20398;-84
2023/12/04 10:15:55;;;;;;;1999.90;999.90;;;;;;;;;;5052181;28;20046;-84
2023/12/04 10:18:25;;;;;;;1999.90;999.90;;;;;;;;;;5050613;28;20049;-83
2023/12/04 10:20:53;;;;;;;1999.90;999.90;;;;;;;;;;5053826;28;20421;-84
2023/12/04 10:23:20;;;;;;;1999.90;999.90;;;;;;;;;;5058122;28;20083;-87
2023/12/04 10:25:49;;;;;;;1999.90;999.90;;;;;;;;;;5049712;28;20095;-86
2023/12/04 10:28:18;;;;;;;1999.90;999.90;;;;;;;;;;5052230;28;20056;-86
2023/12/04 10:30:46;;;;;;;1999.90;999.90;;;;;;;;;;5050015;28;20053;-85
2023/12/04 10:33:14;;;;;;;1999.90;999.90;;;;;;;;;;5057025;28;20412;-85
2023/12/04 10:35:40;;;;;;;1999.90;999.90;;;;;;;;;;5048103;28;20080;-85
2023/12/04 10:38:08;;;;;;;1999.90;999.90;;;;;;;;;;5049566;28;20057;-85
2023/12/04 10:40:36;;;;;;;1999.90;999.90;;;;;;;;;;5044288;28;20057;-85
2023/12/04 10:43:23;;;;;;;1999.90;999.90;;;;;;;;;;5057194;28;20410;-85
2023/12/04 10:45:51;;;;;;;1999.90;999.90;;;;;;;;;;5057633;28;20474;-84
2023/12/04 10:48:18;;;;;;;1999.90;999.90;;;;;;;;;;5050221;28;20063;-85
2023/12/04 10:50:46;;;;;;;1999.90;999.90;;;;;;;;;;5049336;28;20122;-85
2023/12/04 10:53:14;;;;;;;1999.90;999.90;;;;;;;;;;5046630;28;20077;-85
2023/12/04 10:55:41;;;;;;;1999.90;999.90;;;;;;;;;;5056281;28;20488;-85
2023/12/04 10:58:09;;;;;;;1999.90;999.90;;;;;;;;;;5054286;28;20059;-85
2023/12/04 11:00:40;;;;;;;1999.90;999.90;;;;;;;;;;5048541;28;20445;-85
2023/12/04 11:03:09;;;;;;;1999.90;999.90;;;;;;;;;;5052985;28;20099;-85
2023/12/04 11:05:38;;;;;;;1999.90;999.90;;;;;;;;;;5053849;28;20391;-85
2023/12/04 11:08:06;;;;;;;1999.90;999.90;;;;;;;;;;5056515;28;20452;-85
2023/12/04 11:10:34;;;;;;;1999.90;999.90;;;;;;;;;;5051384;28;20136;-85
2023/12/04 11:13:04;;;;;;;1999.90;999.90;;;;;;;;;;5059590;28;20076;-85
2023/12/04 11:15:31;;;;;;;1999.90;999.90;;;;;;;;;;5059683;28;20590;-85
2023/12/04 11:18:00;;;;;;;1999.90;999.90;;;;;;;;;;5058175;28;20419;-85
2023/12/04 11:20:29;;;;;;;1999.90;999.90;;;;;;;;;;5056075;28;20565;-85
2023/12/04 11:22:56;;;;;;;1999.90;999.90;;;;;;;;;;5055070;28;20049;-85
2023/12/04 11:25:24;;;;;;;1999.90;999.90;;;;;;;;;;5059306;28;20573;-86
2023/12/04 11:27:51;;;;;;;1999.90;999.90;;;;;;;;;;5059857;28;20416;-85
2023/12/04 11:30:18;;;;;;;1999.90;999.90;;;;;;;;;;5063084;28;20049;-86
2023/12/04 11:32:45;;;;;;;1999.90;999.90;;;;;;;;;;5053224;28;20370;-86
2023/12/04 11:35:17;;;;;;;1999.90;999.90;;;;;;;;;;5057302;28;20048;-85
2023/12/04 11:37:44;;;;;;;1999.90;999.90;;;;;;;;;;5055037;28;20049;-85
2023/12/04 11:40:13;;;;;;;1999.90;999.90;;;;;;;;;;5053913;28;20055;-86
2023/12/04 11:42:40;;;;;;;1999.90;999.90;;;;;;;;;;5059993;28;20390;-85
2023/12/04 11:45:07;;;;;;;1999.90;999.90;;;;;;;;;;5057938;28;20582;-86
2023/12/04 11:47:49;;;;;;;1999.90;999.90;;;;;;;;;;5058264;28;20052;-86
2023/12/04 11:50:19;;;;;;;1999.90;999.90;;;;;;;;;;5057132;28;20049;-86
2023/12/04 11:52:46;;;;;;;1999.90;999.90;;;;;;;;;;5059743;28;20463;-86
2023/12/04 11:55:13;;;;;;;1999.90;999.90;;;;;;;;;;5060653;28;20499;-86
2023/12/04 11:57:40;;;;;;;1999.90;999.90;;;;;;;;;;5060943;28;20412;-86
2023/12/04 12:00:16;;;;;;;1999.90;999.90;;;;;;;;;;5058059;28;20044;-87
2023/12/04 12:02:48;;;;;;;1999.90;999.90;;;;;;;;;;5055733;28;20045;-87
2023/12/04 12:05:15;;;;;;;1999.90;999.90;;;;;;;;;;5060972;28;20501;-87
2023/12/04 12:07:43;;;;;;;1999.90;999.90;;;;;;;;;;5060119;28;20131;-87
2023/12/04 12:10:10;;;;;;;1999.90;999.90;;;;;;;;;;5059330;28;20528;-87
2023/12/04 12:12:37;;;;;;;1999.90;999.90;;;;;;;;;;5057641;28;20063;-87
2023/12/04 12:15:05;;;;;;;1999.90;999.90;;;;;;;;;;5055535;28;20059;-86
2023/12/04 12:17:31;;;;;;;1999.90;999.90;;;;;;;;;;5053992;28;20048;-86
2023/12/04 12:19:58;;;;;;;1999.90;999.90;;;;;;;;;;5054208;28;20056;-86
2023/12/04 12:22:25;;;;;;;1999.90;999.90;;;;;;;;;;5057439;28;20052;-87
2023/12/04 12:24:53;;;;;;;1999.90;999.90;;;;;;;;;;5059096;28;20096;-86
2023/12/04 12:27:20;;;;;;;1999.90;999.90;;;;;;;;;;5058776;28;20583;-87
2023/12/04 12:29:46;;;;;;;1999.90;999.90;;;;;;;;;;5055753;28;20056;-87
2023/12/04 12:32:13;;;;;;;1999.90;999.90;;;;;;;;;;5052911;28;20418;-87
2023/12/04 12:34:40;;;;;;;1999.90;999.90;;;;;;;;;;5056222;28;20045;-87
2023/12/04 12:37:06;;;;;;;1999.90;999.90;;;;;;;;;;5058133;28;20060;-87
2023/12/04 12:39:33;;;;;;;1999.90;999.90;;;;;;;;;;5056880;28;20052;-88
2023/12/04 12:42:01;;;;;;;1999.90;999.90;;;;;;;;;;5060840;28;20037;-87
2023/12/04 12:44:28;;;;;;;1999.90;999.90;;;;;;;;;;5061264;28;20057;-87
2023/12/04 12:46:54;;;;;;;1999.90;999.90;;;;;;;;;;5056999;28;20048;-87
2023/12/04 12:49:21;;;;;;;1999.90;999.90;;;;;;;;;;5052352;28;20048;-87
2023/12/04 12:51:48;;;;;;;1999.90;999.90;;;;;;;;;;5048006;28;20413;-86
2023/12/04 12:54:14;;;;;;;1999.90;999.90;;;;;;;;;;5059417;28;20055;-86
2023/12/04 12:56:41;;;;;;;1999.90;999.90;;;;;;;;;;5061685;28;20049;-86
2023/12/04 12:59:09;;;;;;;1999.90;999.90;;;;;;;;;;5060100;28;20052;-88
2023/12/04 13:01:36;;;;;;;1999.90;999.90;;;;;;;;;;5049901;28;20053;-87
2023/12/04 13:04:03;;;;;;;1999.90;999.90;;;;;;;;;;5058025;28;20053;-88
2023/12/04 13:06:30;;;;;;;1999.90;999.90;;;;;;;;;;5058578;28;20053;-88
2023/12/04 13:08:56;;;;;;;1999.90;999.90;;;;;;;;;;5055147;28;20060;-88
2023/12/04 13:11:23;;;;;;;1999.90;999.90;;;;;;;;;;5059433;28;20503;-87
2023/12/04 13:13:49;;;;;;;1999.90;999.90;;;;;;;;;;5054354;28;20087;-88
2023/12/04 13:16:17;;;;;;;1999.90;999.90;;;;;;;;;;5052480;28;20049;-88
2023/12/04 13:18:44;;;;;;;1999.90;999.90;;;;;;;;;;5054625;28;20056;-88
2023/12/04 13:21:11;;;;;;;1999.90;999.90;;;;;;;;;;5068011;28;20044;-88
2023/12/04 13:23:38;;;;;;;1999.90;999.90;;;;;;;;;;5072015;28;20080;-87
2023/12/04 13:26:04;;;;;;;1999.90;999.90;;;;;;;;;;5067980;28;20041;-88
2023/12/04 13:28:31;;;;;;;1999.90;999.90;;;;;;;;;;5067629;28;20051;-88
2023/12/04 13:30:58;;;;;;;1999.90;999.90;;;;;;;;;;5054030;28;20059;-88
2023/12/04 13:33:26;;;;;;;1999.90;999.90;;;;;;;;;;5048095;28;20057;-88
2023/12/04 13:35:52;;;;;;;1999.90;999.90;;;;;;;;;;5063995;28;20135;-88
2023/12/04 13:38:19;;;;;;;1999.90;999.90;;;;;;;;;;5055276;28;20052;-88
2023/12/04 13:40:59;;;;;;;1999.90;999.90;;;;;;;;;;5061080;28;20048;-88